Time;durP1;ratioP1;P1;durP2;ratioP2;P2;SDS_P1;SDS_P2;PMS_P1;PMS_P2;Temp;Humidity;BMP_temperature;BMP_pressure;BME280_temperature;BME280_humidity;BME280_pressure;Samples;Min_cycle;Max_cycle;Signal;HPM_P1;HPM_P2
2022/03/19 00:00:36;;;;;;;4.43;1.92;;;21.70;40.80;;;;;;4971958;28;20434;-58
2022/03/19 00:03:03;;;;;;;5.97;2.20;;;21.70;40.80;;;;;;4971619;28;20053;-59
2022/03/19 00:05:28;;;;;;;3.78;1.67;;;21.70;40.80;;;;;;4973815;28;20050;-59
2022/03/19 00:07:55;;;;;;;4.43;1.80;;;21.70;40.70;;;;;;4973115;28;20074;-58
2022/03/19 00:10:22;;;;;;;4.53;1.90;;;21.70;40.70;;;;;;4973356;28;20163;-59
2022/03/19 00:12:49;;;;;;;4.13;1.65;;;21.70;40.60;;;;;;4973646;28;20054;-58
2022/03/19 00:15:16;;;;;;;3.90;1.77;;;21.70;40.60;;;;;;4973873;28;20577;-59
2022/03/19 00:17:42;;;;;;;4.75;1.70;;;21.60;40.50;;;;;;4973755;28;20050;-58
2022/03/19 00:20:08;;;;;;;5.00;2.10;;;21.60;40.40;;;;;;4977585;28;20096;-58
2022/03/19 00:22:34;;;;;;;3.10;1.60;;;21.60;40.40;;;;;;4971843;28;20059;-58
2022/03/19 00:25:00;;;;;;;4.43;1.80;;;21.60;40.40;;;;;;4973858;28;20101;-58
2022/03/19 00:27:25;;;;;;;4.72;1.70;;;21.60;40.40;;;;;;4989565;28;20530;-58
2022/03/19 00:29:51;;;;;;;4.68;2.38;;;21.60;40.40;;;;;;4974680;28;20043;-59
2022/03/19 00:32:17;;;;;;;5.47;1.63;;;21.60;40.30;;;;;;4975148;28;20046;-58
2022/03/19 00:34:43;;;;;;;4.90;1.90;;;21.50;40.30;;;;;;4977040;28;20057;-58
2022/03/19 00:37:08;;;;;;;3.72;1.67;;;21.50;40.30;;;;;;4976402;28;20050;-58
2022/03/19 00:39:34;;;;;;;2.83;1.65;;;21.50;40.20;;;;;;4973796;28;20126;-57
2022/03/19 00:41:59;;;;;;;3.10;1.40;;;21.50;40.10;;;;;;4975477;28;20712;-58
2022/03/19 00:44:25;;;;;;;4.00;1.63;;;21.50;40.20;;;;;;4975427;28;20085;-58
2022/03/19 00:46:51;;;;;;;5.15;1.65;;;21.50;40.10;;;;;;4974744;28;20101;-58
2022/03/19 00:49:16;;;;;;;3.22;1.60;;;21.40;40.10;;;;;;4974251;28;20050;-58
2022/03/19 00:51:42;;;;;;;4.40;1.90;;;21.40;40.10;;;;;;4974787;28;20063;-58
2022/03/19 00:54:09;;;;;;;4.25;1.83;;;21.40;40.10;;;;;;4974598;28;20054;-58
2022/03/19 00:56:35;;;;;;;5.13;1.70;;;21.40;40.10;;;;;;4977405;28;20096;-58
2022/03/19 00:59:01;;;;;;;4.07;1.35;;;21.40;40.00;;;;;;4974248;28;20074;-59
2022/03/19 01:01:27;;;;;;;4.70;1.75;;;21.40;40.10;;;;;;4973292;28;20092;-58
2022/03/19 01:03:53;;;;;;;3.42;1.48;;;21.40;40.00;;;;;;4975021;28;20090;-58
2022/03/19 01:06:18;;;;;;;4.97;1.50;;;21.40;39.90;;;;;;4975728;28;20034;-58
2022/03/19 01:08:44;;;;;;;4.97;1.67;;;21.40;39.90;;;;;;4972400;28;20094;-59
2022/03/19 01:11:10;;;;;;;4.25;1.52;;;21.40;40.00;;;;;;4977976;28;20046;-59
2022/03/19 01:13:35;;;;;;;3.88;1.80;;;21.30;40.00;;;;;;4974627;28;20104;-59
2022/03/19 01:16:02;;;;;;;4.70;1.90;;;21.40;39.90;;;;;;4975215;28;20042;-59
2022/03/19 01:18:28;;;;;;;3.35;1.58;;;21.30;39.90;;;;;;4974844;28;20054;-58
2022/03/19 01:20:54;;;;;;;4.72;1.80;;;21.30;39.90;;;;;;4974391;28;20141;-58
2022/03/19 01:23:20;;;;;;;3.92;1.60;;;21.30;39.80;;;;;;4974226;28;20042;-58
2022/03/19 01:25:46;;;;;;;4.13;1.67;;;21.30;39.70;;;;;;4973458;28;20043;-59
2022/03/19 01:28:11;;;;;;;4.78;1.90;;;21.30;39.80;;;;;;4975020;28;20042;-58
2022/03/19 01:30:37;;;;;;;4.03;1.58;;;21.20;39.70;;;;;;4972907;28;20053;-58
2022/03/19 01:33:02;;;;;;;4.15;1.80;;;21.20;39.70;;;;;;4973774;28;20182;-58
2022/03/19 01:35:28;;;;;;;4.45;1.90;;;21.20;39.70;;;;;;4976476;28;20042;-58
2022/03/19 01:37:54;;;;;;;3.47;1.38;;;21.20;39.60;;;;;;4974975;28;20065;-58
2022/03/19 01:40:20;;;;;;;4.15;1.70;;;21.20;39.70;;;;;;4975566;28;20164;-58
2022/03/19 01:42:48;;;;;;;4.03;1.60;;;21.20;39.60;;;;;;4973153;28;20387;-59
2022/03/19 01:45:19;;;;;;;4.90;1.58;;;21.20;39.50;;;;;;4973091;28;20046;-58
2022/03/19 01:47:47;;;;;;;3.30;1.30;;;21.20;39.50;;;;;;4975358;28;20634;-57
2022/03/19 01:50:13;;;;;;;3.55;1.80;;;21.20;39.50;;;;;;4974025;28;20061;-58
2022/03/19 01:52:40;;;;;;;3.97;1.52;;;21.10;39.50;;;;;;4974043;28;20466;-58
2022/03/19 01:55:07;;;;;;;5.05;1.65;;;21.20;39.50;;;;;;4974296;28;20055;-58
2022/03/19 01:57:37;;;;;;;3.65;1.33;;;21.20;39.50;;;;;;4972851;28;20043;-58
2022/03/19 02:00:07;;;;;;;3.23;1.50;;;21.10;39.40;;;;;;4973463;28;20097;-59
2022/03/19 02:02:33;;;;;;;3.78;1.67;;;21.10;39.40;;;;;;4973298;28;20066;-58
2022/03/19 02:05:03;;;;;;;2.97;1.35;;;21.10;39.40;;;;;;4973811;28;20081;-58
2022/03/19 02:07:29;;;;;;;4.05;1.75;;;21.10;39.40;;;;;;4974847;28;20054;-58
2022/03/19 02:09:58;;;;;;;3.65;1.45;;;21.10;39.40;;;;;;4972462;28;20491;-57
2022/03/19 02:12:24;;;;;;;4.88;1.77;;;21.10;39.30;;;;;;4976541;28;20054;-58
2022/03/19 02:14:50;;;;;;;6.45;1.33;;;21.10;39.40;;;;;;4974935;28;20060;-58
2022/03/19 02:17:16;;;;;;;4.63;1.58;;;21.10;39.40;;;;;;4973149;28;20057;-58
2022/03/19 02:19:50;;;;;;;3.28;1.38;;;21.10;39.30;;;;;;4972036;28;20062;-58
2022/03/19 02:22:20;;;;;;;4.38;1.77;;;21.00;39.30;;;;;;4975104;28;20046;-58
2022/03/19 02:27:32;;;;;;;3.50;1.40;;;21.00;39.30;;;;;;4975443;28;20687;-57
2022/03/19 02:29:58;;;;;;;3.15;1.30;;;21.00;39.30;;;;;;4973372;28;20051;-58
2022/03/19 02:32:24;;;;;;;2.67;1.33;;;21.00;39.30;;;;;;4974190;28;20509;-58
2022/03/19 02:34:50;;;;;;;3.15;1.60;;;21.00;39.20;;;;;;4972908;28;20384;-57
2022/03/19 02:37:16;;;;;;;2.67;1.33;;;21.00;39.20;;;;;;4975185;28;20062;-58
2022/03/19 02:39:41;;;;;;;4.00;1.83;;;21.00;39.20;;;;;;4973801;28;20049;-58
2022/03/19 02:42:08;;;;;;;3.08;1.73;;;20.90;39.20;;;;;;4973170;28;20168;-58
2022/03/19 02:44:35;;;;;;;2.88;1.48;;;20.90;39.10;;;;;;4971751;28;20057;-59
2022/03/19 02:47:03;;;;;;;3.72;1.75;;;20.90;39.20;;;;;;4972463;28;20051;-58
2022/03/19 02:49:29;;;;;;;4.10;1.95;;;20.90;39.10;;;;;;4972833;28;20050;-58
2022/03/19 02:51:55;;;;;;;4.55;1.80;;;20.90;39.20;;;;;;4974947;28;20047;-58
2022/03/19 02:54:24;;;;;;;2.75;1.50;;;20.90;39.20;;;;;;4973724;28;20157;-58
2022/03/19 02:56:51;;;;;;;3.45;1.60;;;20.90;39.10;;;;;;4970892;28;20058;-58
2022/03/19 02:59:22;;;;;;;5.53;1.90;;;20.90;39.10;;;;;;4988561;28;20061;-58
2022/03/19 03:01:53;;;;;;;3.92;1.70;;;20.90;39.10;;;;;;4964613;28;20053;-58
2022/03/19 03:04:19;;;;;;;3.00;1.38;;;20.90;39.10;;;;;;4968627;28;20519;-58
2022/03/19 03:06:48;;;;;;;3.38;1.67;;;20.90;39.20;;;;;;4971755;28;20130;-58
2022/03/19 03:09:14;;;;;;;2.53;1.40;;;20.80;39.10;;;;;;4973487;28;20110;-59
2022/03/19 03:11:40;;;;;;;4.32;1.90;;;20.80;39.10;;;;;;4972569;28;20054;-58
2022/03/19 03:14:10;;;;;;;5.35;1.70;;;20.80;39.10;;;;;;4971625;28;20166;-57
2022/03/19 03:16:37;;;;;;;3.38;1.48;;;20.80;39.10;;;;;;4970731;28;20047;-59
2022/03/19 03:19:05;;;;;;;4.55;1.65;;;20.80;39.10;;;;;;4972219;28;20035;-59
2022/03/19 03:21:32;;;;;;;3.92;1.50;;;20.80;39.10;;;;;;4967451;28;20379;-58
2022/03/19 03:23:58;;;;;;;4.65;1.90;;;20.80;39.10;;;;;;4970646;28;20054;-58
2022/03/19 03:26:23;;;;;;;4.07;1.65;;;20.80;39.10;;;;;;4970823;28;20050;-58
2022/03/19 03:28:50;;;;;;;4.43;1.90;;;20.80;39.00;;;;;;4970173;28;20058;-59
2022/03/19 03:31:15;;;;;;;4.38;1.77;;;20.80;39.10;;;;;;4969999;28;20054;-58
2022/03/19 03:33:41;;;;;;;2.95;1.67;;;20.70;39.00;;;;;;4973954;28;20674;-58
2022/03/19 03:36:07;;;;;;;3.92;1.50;;;20.80;39.00;;;;;;4973487;28;20411;-60
2022/03/19 03:38:33;;;;;;;2.75;1.45;;;20.70;39.00;;;;;;4971353;28;20533;-59
2022/03/19 03:40:58;;;;;;;3.78;1.75;;;20.70;39.00;;;;;;4972459;28;20154;-59
2022/03/19 03:43:24;;;;;;;6.07;2.08;;;20.70;39.10;;;;;;4971593;28;20085;-59
2022/03/19 03:45:50;;;;;;;3.63;1.58;;;20.70;39.00;;;;;;4972903;28;20078;-59
2022/03/19 03:48:16;;;;;;;5.05;1.65;;;20.70;39.00;;;;;;4976721;28;20058;-59
2022/03/19 03:50:42;;;;;;;2.53;1.23;;;20.70;39.00;;;;;;4974035;28;20097;-59
2022/03/19 03:53:08;;;;;;;2.85;1.45;;;20.70;39.00;;;;;;4973486;28;20510;-60
2022/03/19 03:55:35;;;;;;;4.20;1.70;;;20.70;39.00;;;;;;4977688;28;20054;-59
2022/03/19 03:58:01;;;;;;;3.47;1.55;;;20.70;39.10;;;;;;4958096;28;20050;-59
2022/03/19 04:00:27;;;;;;;3.78;1.63;;;20.60;39.00;;;;;;4976166;28;20047;-58
2022/03/19 04:02:53;;;;;;;3.28;1.50;;;20.60;39.00;;;;;;4976988;28;20409;-59
2022/03/19 04:05:19;;;;;;;6.10;1.83;;;20.60;39.00;;;;;;4977679;28;20035;-58
2022/03/19 04:07:45;;;;;;;2.55;1.20;;;20.60;39.00;;;;;;4977004;28;20050;-58
2022/03/19 04:10:10;;;;;;;2.90;1.40;;;20.60;39.00;;;;;;4974590;28;20126;-58
2022/03/19 04:12:36;;;;;;;3.05;1.40;;;20.60;39.00;;;;;;4972495;28;20046;-58
2022/03/19 04:15:03;;;;;;;3.20;1.40;;;20.60;39.00;;;;;;4975599;28;20116;-58
2022/03/19 04:17:29;;;;;;;5.15;1.83;;;20.60;39.00;;;;;;4976090;28;20042;-58
2022/03/19 04:19:54;;;;;;;3.22;1.50;;;20.60;39.00;;;;;;4960126;28;20046;-58
2022/03/19 04:22:20;;;;;;;2.88;1.65;;;20.60;39.00;;;;;;4978235;28;20047;-59
2022/03/19 04:24:46;;;;;;;2.88;1.63;;;20.60;39.00;;;;;;4974614;28;20594;-59
2022/03/19 04:27:14;;;;;;;2.25;1.45;;;20.50;39.00;;;;;;4976451;28;20055;-59
2022/03/19 04:29:40;;;;;;;2.58;1.50;;;20.50;39.00;;;;;;4975884;28;20577;-59
2022/03/19 04:32:05;;;;;;;4.20;1.65;;;20.50;39.00;;;;;;4975402;28;20047;-59
2022/03/19 04:34:31;;;;;;;3.67;1.70;;;20.50;39.00;;;;;;4975170;28;20050;-58
2022/03/19 04:36:57;;;;;;;4.07;1.73;;;20.50;39.00;;;;;;4981293;28;20554;-58
2022/03/19 04:39:22;;;;;;;3.90;1.67;;;20.50;39.00;;;;;;4975275;28;20728;-58
2022/03/19 04:41:48;;;;;;;3.35;1.55;;;20.50;39.00;;;;;;4974270;28;20047;-59
2022/03/19 04:44:13;;;;;;;4.25;2.00;;;20.50;39.00;;;;;;4976092;28;20675;-58
2022/03/19 04:46:39;;;;;;;4.85;1.50;;;20.50;39.00;;;;;;4975124;28;20106;-58
2022/03/19 04:49:04;;;;;;;3.70;1.60;;;20.50;39.00;;;;;;4976537;28;20072;-58
2022/03/19 04:51:36;;;;;;;4.82;1.80;;;20.50;38.90;;;;;;4975534;28;20403;-57
2022/03/19 04:54:02;;;;;;;2.65;1.40;;;20.50;38.90;;;;;;4975391;28;20057;-58
2022/03/19 04:56:29;;;;;;;3.28;2.03;;;20.50;39.00;;;;;;4975083;28;20478;-58
2022/03/19 04:58:56;;;;;;;3.47;1.60;;;20.40;38.90;;;;;;4972386;28;20069;-58
2022/03/19 05:01:25;;;;;;;4.07;1.63;;;20.40;38.90;;;;;;4971636;28;20128;-58
2022/03/19 05:03:50;;;;;;;3.22;1.60;;;20.40;38.90;;;;;;4971801;28;20054;-58
2022/03/19 05:06:16;;;;;;;3.45;1.60;;;20.40;38.90;;;;;;4973089;28;20048;-58
2022/03/19 05:08:41;;;;;;;2.65;1.30;;;20.40;38.90;;;;;;4975599;28;20061;-58
2022/03/19 05:11:13;;;;;;;3.15;1.67;;;20.40;38.90;;;;;;4975013;28;20042;-58
2022/03/19 05:13:47;;;;;;;4.70;1.73;;;20.40;38.90;;;;;;4975385;28;20051;-57
2022/03/19 05:16:13;;;;;;;3.95;1.55;;;20.40;38.90;;;;;;4973866;28;20051;-60
2022/03/19 05:18:39;;;;;;;3.83;1.60;;;20.40;38.90;;;;;;4974295;28;20057;-57
2022/03/19 05:21:05;;;;;;;2.97;1.50;;;20.40;38.90;;;;;;4970485;28;20078;-58
2022/03/19 05:23:31;;;;;;;2.80;1.42;;;20.40;39.10;;;;;;4973109;28;20055;-58
2022/03/19 05:25:58;;;;;;;3.72;1.77;;;20.40;39.20;;;;;;4976151;28;20054;-58
2022/03/19 05:28:24;;;;;;;3.40;1.35;;;20.40;39.40;;;;;;4975550;28;20050;-58
2022/03/19 05:30:50;;;;;;;2.97;1.50;;;20.30;39.40;;;;;;4974585;28;20137;-59
2022/03/19 05:33:15;;;;;;;4.95;1.80;;;20.30;39.50;;;;;;4975195;28;20050;-58
2022/03/19 05:35:42;;;;;;;2.92;1.25;;;20.30;39.50;;;;;;4974847;28;20845;-58
2022/03/19 05:38:08;;;;;;;4.57;1.60;;;20.30;39.60;;;;;;4974089;28;20051;-58
2022/03/19 05:40:34;;;;;;;3.00;1.63;;;20.30;39.70;;;;;;4973191;28;20057;-59
2022/03/19 05:43:00;;;;;;;3.47;1.77;;;20.30;39.60;;;;;;4973774;28;20523;-58
2022/03/19 05:45:26;;;;;;;5.22;1.77;;;20.30;39.60;;;;;;4975189;28;20138;-59
2022/03/19 05:47:51;;;;;;;2.15;1.50;;;20.30;39.60;;;;;;4975512;28;20092;-59
2022/03/19 05:50:17;;;;;;;2.30;1.38;;;20.30;39.60;;;;;;4972614;28;20084;-59
2022/03/19 05:52:47;;;;;;;6.00;1.60;;;20.20;39.60;;;;;;4974260;28;20069;-59
2022/03/19 05:55:13;;;;;;;3.08;1.45;;;20.20;39.70;;;;;;4975503;28;20074;-58
2022/03/19 05:57:40;;;;;;;3.42;1.38;;;20.20;39.60;;;;;;4973307;28;20113;-58
2022/03/19 06:00:08;;;;;;;4.22;1.60;;;20.20;39.70;;;;;;4975641;28;20682;-58
2022/03/19 06:02:39;;;;;;;5.07;1.50;;;20.20;39.70;;;;;;4975512;28;20082;-58
2022/03/19 06:05:05;;;;;;;3.35;1.60;;;20.20;39.70;;;;;;4971742;28;20035;-58
2022/03/19 06:07:31;;;;;;;3.10;1.50;;;20.20;39.80;;;;;;4971957;28;20054;-58
2022/03/19 06:09:57;;;;;;;2.50;1.30;;;20.20;39.80;;;;;;4973911;28;20058;-58
2022/03/19 06:12:22;;;;;;;4.93;1.63;;;20.20;39.80;;;;;;4972428;28;20057;-58
2022/03/19 06:14:53;;;;;;;3.38;1.30;;;20.20;40.50;;;;;;4973832;28;20133;-59
2022/03/19 06:17:19;;;;;;;3.20;1.50;;;20.20;39.80;;;;;;4973567;28;20051;-59
2022/03/19 06:19:44;;;;;;;4.38;1.10;;;20.20;39.80;;;;;;4975318;28;20499;-59
2022/03/19 06:22:10;;;;;;;5.03;1.70;;;20.20;39.80;;;;;;4986647;28;20061;-58
2022/03/19 06:24:36;;;;;;;3.13;1.52;;;20.20;39.70;;;;;;4973718;28;20104;-58
2022/03/19 06:27:01;;;;;;;2.50;1.33;;;20.20;39.70;;;;;;4974850;28;20043;-59
2022/03/19 06:29:27;;;;;;;5.97;1.73;;;20.20;39.60;;;;;;4974597;28;20049;-59
2022/03/19 06:31:52;;;;;;;2.55;1.38;;;20.10;39.50;;;;;;4975272;28;20129;-60
2022/03/19 06:34:18;;;;;;;4.55;1.58;;;20.10;39.40;;;;;;4972360;28;20137;-59
2022/03/19 06:39:28;;;;;;;3.30;1.33;;;20.10;39.40;;;;;;4973855;28;20053;-58
2022/03/19 06:41:53;;;;;;;3.88;1.70;;;20.00;39.30;;;;;;4976216;28;20046;-59
2022/03/19 06:44:19;;;;;;;4.93;1.70;;;20.00;39.20;;;;;;4973289;28;20141;-59
2022/03/19 06:46:44;;;;;;;3.42;1.40;;;20.00;39.20;;;;;;4971627;28;20062;-60
2022/03/19 06:49:10;;;;;;;2.83;1.55;;;20.00;39.10;;;;;;4971281;28;20506;-60
2022/03/19 06:51:36;;;;;;;3.80;1.52;;;20.10;39.10;;;;;;4973220;28;20064;-59
2022/03/19 06:54:03;;;;;;;4.72;1.58;;;20.00;39.80;;;;;;4973970;28;20061;-59
2022/03/19 06:56:29;;;;;;;3.75;1.60;;;20.10;39.30;;;;;;4972994;28;20042;-61
2022/03/19 06:58:54;;;;;;;3.20;1.35;;;20.10;39.30;;;;;;4975071;28;20110;-59
2022/03/19 07:01:20;;;;;;;4.65;1.50;;;20.10;39.20;;;;;;4968832;28;20062;-60
2022/03/19 07:03:47;;;;;;;6.00;1.40;;;20.20;39.50;;;;;;4968505;28;20442;-58
2022/03/19 07:06:13;;;;;;;2.88;1.40;;;20.20;39.50;;;;;;4971768;28;20848;-59
2022/03/19 07:08:39;;;;;;;3.83;1.33;;;20.20;39.60;;;;;;4973924;28;20039;-60
2022/03/19 07:11:05;;;;;;;4.20;1.50;;;20.20;39.90;;;;;;4957465;28;20050;-59
2022/03/19 07:13:31;;;;;;;4.95;1.85;;;20.30;40.00;;;;;;4974485;28;20328;-58
2022/03/19 07:15:57;;;;;;;3.42;1.50;;;20.30;39.70;;;;;;4956032;28;20073;-58
2022/03/19 07:18:23;;;;;;;2.53;1.17;;;20.30;39.60;;;;;;4971875;28;20058;-60
2022/03/19 07:20:50;;;;;;;2.22;1.30;;;20.30;39.80;;;;;;4971542;28;20046;-60
2022/03/19 07:23:15;;;;;;;2.67;1.33;;;20.30;39.80;;;;;;4974825;28;20417;-59
2022/03/19 07:25:43;;;;;;;4.45;1.60;;;20.40;39.80;;;;;;4971918;28;20046;-59
2022/03/19 07:28:11;;;;;;;2.05;1.27;;;20.40;39.80;;;;;;4971475;28;20055;-60
2022/03/19 07:30:37;;;;;;;4.05;1.17;;;20.40;39.70;;;;;;4971946;28;20049;-58
2022/03/19 07:33:03;;;;;;;2.65;1.35;;;20.40;39.70;;;;;;4972792;28;20094;-59
2022/03/19 07:35:29;;;;;;;2.60;1.50;;;20.40;39.80;;;;;;4973837;28;20070;-60
2022/03/19 07:37:57;;;;;;;4.30;1.40;;;20.40;39.70;;;;;;4975157;28;20050;-59
2022/03/19 07:43:10;;;;;;;4.32;1.38;;;20.40;39.50;;;;;;4973203;28;20509;-58
2022/03/19 07:45:36;;;;;;;3.25;1.60;;;20.50;39.60;;;;;;4970139;28;20129;-59
2022/03/19 07:48:02;;;;;;;4.07;1.58;;;20.50;39.60;;;;;;4973839;28;20151;-59
2022/03/19 07:50:29;;;;;;;3.75;1.65;;;20.50;39.50;;;;;;4973201;28;20051;-57
2022/03/19 07:52:55;;;;;;;3.30;1.40;;;20.50;39.40;;;;;;4974830;28;20058;-58
2022/03/19 07:55:21;;;;;;;3.45;1.50;;;20.50;39.30;;;;;;4972352;28;20069;-57
2022/03/19 07:57:46;;;;;;;3.10;1.45;;;20.50;39.30;;;;;;4973399;28;20051;-57
2022/03/19 08:00:12;;;;;;;3.05;1.55;;;20.50;39.30;;;;;;4973030;28;20038;-59
2022/03/19 08:02:40;;;;;;;5.20;1.83;;;20.50;39.30;;;;;;4971926;28;20402;-58
2022/03/19 08:05:06;;;;;;;3.20;1.45;;;20.50;39.30;;;;;;4968692;28;20057;-59
2022/03/19 08:07:32;;;;;;;3.85;1.70;;;20.50;39.40;;;;;;4974160;28;20097;-58
2022/03/19 08:09:58;;;;;;;4.25;1.60;;;20.50;39.30;;;;;;4973959;28;20165;-58
2022/03/19 08:12:24;;;;;;;3.45;1.05;;;20.60;39.40;;;;;;4951057;28;20054;-60
2022/03/19 08:14:51;;;;;;;3.40;1.77;;;20.50;39.20;;;;;;4973983;28;20185;-58
2022/03/19 08:17:17;;;;;;;3.50;1.45;;;20.50;39.20;;;;;;4971037;28;20055;-58
2022/03/19 08:19:43;;;;;;;3.95;1.65;;;20.60;39.30;;;;;;4971470;28;20054;-58
2022/03/19 08:22:09;;;;;;;4.03;1.33;;;20.50;39.20;;;;;;4973042;28;20977;-58
2022/03/19 08:24:35;;;;;;;4.03;1.40;;;20.50;39.10;;;;;;4971625;28;23308;-58
2022/03/19 08:27:01;;;;;;;3.95;1.60;;;20.60;39.20;;;;;;4973794;28;20057;-58
2022/03/19 08:29:27;;;;;;;3.50;1.20;;;20.60;39.20;;;;;;4973796;28;20051;-59
2022/03/19 08:31:53;;;;;;;4.40;1.60;;;20.60;39.20;;;;;;4972624;28;20415;-59
2022/03/19 08:34:20;;;;;;;3.35;1.52;;;20.60;39.10;;;;;;4976588;28;20506;-58
2022/03/19 08:36:45;;;;;;;2.33;1.52;;;20.60;39.10;;;;;;4974735;28;20054;-59
2022/03/19 08:41:55;;;;;;;2.25;1.20;;;20.60;39.20;;;;;;4977195;28;20133;-59
2022/03/19 08:44:21;;;;;;;3.25;1.33;;;20.60;39.00;;;;;;4976628;28;20056;-59
2022/03/19 08:46:47;;;;;;;3.42;1.33;;;20.60;39.10;;;;;;4965984;28;20146;-58
2022/03/19 08:49:13;;;;;;;3.35;1.30;;;20.60;39.00;;;;;;4974615;28;20255;-58
2022/03/19 08:51:41;;;;;;;4.38;1.50;;;20.60;39.10;;;;;;4975587;28;20104;-59
2022/03/19 08:54:14;;;;;;;2.83;1.50;;;20.60;39.00;;;;;;4975311;28;20152;-58
2022/03/19 08:56:40;;;;;;;3.30;1.55;;;20.60;38.90;;;;;;4982982;28;20042;-59
2022/03/19 08:59:06;;;;;;;4.05;1.50;;;20.60;39.00;;;;;;4975777;28;20395;-59
2022/03/19 09:01:33;;;;;;;3.05;1.33;;;20.60;39.10;;;;;;4967592;28;20121;-60
2022/03/19 09:03:59;;;;;;;4.38;1.30;;;20.70;39.20;;;;;;4962812;28;20379;-59
2022/03/19 09:06:25;;;;;;;5.32;1.70;;;20.60;39.30;;;;;;4975271;28;20058;-59
2022/03/19 09:08:50;;;;;;;2.47;1.27;;;20.60;39.30;;;;;;4972984;28;20051;-59
2022/03/19 09:11:18;;;;;;;3.90;1.40;;;20.60;39.30;;;;;;4988324;28;20073;-59
2022/03/19 09:13:48;;;;;;;3.88;1.50;;;20.60;39.30;;;;;;4973855;28;20059;-59
2022/03/19 09:16:15;;;;;;;4.97;1.70;;;20.60;39.30;;;;;;4973234;28;20968;-59
2022/03/19 09:18:41;;;;;;;3.35;1.27;;;20.60;39.30;;;;;;4975103;28;20514;-58
2022/03/19 09:21:06;;;;;;;5.82;1.65;;;20.60;39.30;;;;;;4973944;28;20053;-59
2022/03/19 09:23:32;;;;;;;3.53;1.30;;;20.60;39.30;;;;;;4973061;28;20069;-58
2022/03/19 09:25:58;;;;;;;3.42;1.40;;;20.60;39.30;;;;;;4972639;28;20447;-59
2022/03/19 09:28:23;;;;;;;3.97;1.10;;;20.60;39.40;;;;;;4974391;28;20138;-58
2022/03/19 09:30:50;;;;;;;3.35;1.38;;;20.60;39.40;;;;;;4974414;28;20050;-59
2022/03/19 09:33:15;;;;;;;2.83;1.30;;;20.60;39.40;;;;;;4974105;28;20058;-59
2022/03/19 09:35:41;;;;;;;2.20;1.00;;;20.60;39.60;;;;;;4980553;28;20042;-59
2022/03/19 09:38:07;;;;;;;2.58;1.20;;;20.60;39.50;;;;;;4972949;28;20046;-59
2022/03/19 09:40:32;;;;;;;2.42;1.15;;;20.60;39.60;;;;;;4973301;28;20108;-58
2022/03/19 09:42:59;;;;;;;1.98;1.20;;;20.60;39.60;;;;;;4974386;28;20495;-59
2022/03/19 09:45:26;;;;;;;4.28;1.05;;;20.60;39.60;;;;;;4976513;28;20537;-58
2022/03/19 09:47:54;;;;;;;2.78;1.38;;;20.60;39.60;;;;;;4972531;28;20049;-58
2022/03/19 09:50:20;;;;;;;2.90;1.30;;;20.60;39.60;;;;;;4973644;28;20134;-58
2022/03/19 09:52:51;;;;;;;2.25;1.08;;;20.60;39.60;;;;;;4974773;28;20094;-58
2022/03/19 09:55:17;;;;;;;;;;;20.60;39.60;;;;;;4975155;28;20050;-58
2022/03/19 09:57:43;;;;;;;5.82;1.20;;;20.60;39.50;;;;;;4974294;28;19922;-58
2022/03/19 10:00:10;;;;;;;3.80;1.15;;;20.60;39.60;;;;;;4988080;28;20058;-58
2022/03/19 10:02:59;;;;;;;4.75;1.42;;;20.60;39.60;;;;;;4972923;28;20057;-59
2022/03/19 10:10:57;;;;;;;3.67;1.20;;;20.60;39.40;;;;;;4974832;28;20061;-58
2022/03/19 10:13:25;;;;;;;2.35;1.02;;;20.60;39.50;;;;;;4975308;28;20085;-58
2022/03/19 10:15:51;;;;;;;3.65;1.15;;;20.60;39.40;;;;;;4974784;28;20042;-59
2022/03/19 10:18:17;;;;;;;3.05;1.10;;;20.60;39.40;;;;;;4974026;28;20047;-58
2022/03/19 10:20:44;;;;;;;2.78;1.17;;;20.60;39.50;;;;;;4974884;28;20084;-58
2022/03/19 10:23:10;;;;;;;2.75;1.20;;;20.60;39.50;;;;;;4972503;28;20097;-58
2022/03/19 10:25:36;;;;;;;4.03;1.38;;;20.60;39.50;;;;;;4974910;28;20046;-59
2022/03/19 10:28:08;;;;;;;4.05;1.40;;;20.60;39.50;;;;;;4957541;28;20046;-59
2022/03/19 10:30:36;;;;;;;3.25;1.60;;;20.60;39.50;;;;;;4979557;28;20156;-59
2022/03/19 10:33:01;;;;;;;2.85;1.00;;;20.60;39.50;;;;;;4974711;28;20050;-59
2022/03/19 10:35:36;;;;;;;3.05;1.10;;;20.60;39.50;;;;;;4974032;28;20065;-58
2022/03/19 10:38:15;;;;;;;5.45;1.50;;;20.60;39.50;;;;;;4988446;28;20510;-58
2022/03/19 10:40:43;;;;;;;2.42;1.25;;;20.60;39.50;;;;;;4972953;28;20549;-59
2022/03/19 10:43:10;;;;;;;2.85;1.20;;;20.60;39.50;;;;;;4972579;28;20474;-59
2022/03/19 10:45:45;;;;;;;2.97;0.93;;;20.60;39.50;;;;;;4969617;28;20068;-58
2022/03/19 10:48:12;;;;;;;4.22;1.10;;;20.60;39.50;;;;;;4968758;28;20061;-57
2022/03/19 10:50:41;;;;;;;4.78;1.20;;;20.60;39.40;;;;;;4977500;28;20621;-58
2022/03/19 10:53:07;;;;;;;3.33;1.17;;;20.60;39.50;;;;;;4973453;28;20565;-58
2022/03/19 10:55:33;;;;;;;4.18;1.33;;;20.50;39.30;;;;;;4972732;28;20162;-58
2022/03/19 10:57:59;;;;;;;3.53;1.15;;;20.60;39.40;;;;;;4969753;28;20042;-59
2022/03/19 11:00:25;;;;;;;4.75;1.20;;;20.60;39.30;;;;;;4970162;28;20081;-58
2022/03/19 11:02:57;;;;;;;4.20;1.10;;;20.50;39.30;;;;;;4973425;28;20106;-59
2022/03/19 11:05:27;;;;;;;2.72;1.10;;;20.60;39.30;;;;;;4972136;28;21759;-59
2022/03/19 11:07:54;;;;;;;4.75;1.15;;;20.60;39.30;;;;;;4973084;28;20046;-60
2022/03/19 11:10:21;;;;;;;4.38;1.33;;;20.60;39.20;;;;;;4971709;28;20047;-59
2022/03/19 11:12:50;;;;;;;2.50;1.33;;;20.60;39.30;;;;;;4972127;28;20046;-59
2022/03/19 11:15:19;;;;;;;3.17;1.13;;;20.50;39.10;;;;;;4970083;28;20544;-59
2022/03/19 11:17:47;;;;;;;3.90;1.10;;;20.50;39.20;;;;;;4971054;28;20082;-59
2022/03/19 11:20:13;;;;;;;4.85;1.20;;;20.50;39.20;;;;;;4972188;28;20054;-58
2022/03/19 11:22:50;;;;;;;3.65;1.02;;;20.50;39.10;;;;;;4972051;28;20894;-59
2022/03/19 11:25:26;;;;;;;2.47;0.90;;;20.60;39.00;;;;;;4971606;28;20488;-58
2022/03/19 11:28:08;;;;;;;3.70;1.25;;;20.50;38.90;;;;;;4969309;28;20097;-59
2022/03/19 11:30:59;;;;;;;3.22;0.93;;;20.60;38.90;;;;;;4977801;28;20057;-59
2022/03/19 11:33:30;;;;;;;3.08;1.23;;;20.60;38.90;;;;;;4976721;28;20612;-58
2022/03/19 11:35:58;;;;;;;3.17;1.20;;;20.50;38.80;;;;;;4976422;28;20081;-59
2022/03/19 11:38:25;;;;;;;3.25;1.20;;;20.50;38.90;;;;;;4972474;28;20050;-58
2022/03/19 11:40:56;;;;;;;4.30;1.10;;;20.60;38.90;;;;;;4973383;28;20082;-58
2022/03/19 11:43:24;;;;;;;6.25;1.30;;;20.60;39.10;;;;;;4973803;28;20058;-58
2022/03/19 11:45:54;;;;;;;2.70;1.00;;;20.60;39.40;;;;;;4973256;28;20550;-58
2022/03/19 11:48:35;;;;;;;2.65;1.25;;;20.60;39.60;;;;;;4971784;28;20082;-60
2022/03/19 11:51:24;;;;;;;6.63;1.23;;;20.60;39.80;;;;;;4973068;28;20461;-57
2022/03/19 11:53:56;;;;;;;3.47;0.90;;;20.60;40.30;;;;;;4969044;28;20055;-57
2022/03/19 11:56:24;;;;;;;2.33;1.00;;;20.70;40.30;;;;;;4974544;28;20050;-58
2022/03/19 11:58:50;;;;;;;4.70;1.25;;;20.70;40.30;;;;;;4972768;28;20129;-59
2022/03/19 12:01:16;;;;;;;4.10;1.30;;;20.60;40.60;;;;;;4971498;28;20097;-57
2022/03/19 12:04:10;;;;;;;3.58;1.02;;;20.70;40.80;;;;;;4972118;28;20400;-59
2022/03/19 12:06:41;;;;;;;3.60;1.10;;;20.60;40.80;;;;;;4958178;28;20438;-58
2022/03/19 12:09:07;;;;;;;3.10;1.13;;;20.70;40.70;;;;;;4974062;28;20085;-58
2022/03/19 12:11:35;;;;;;;3.83;1.23;;;20.70;40.60;;;;;;4982393;28;20081;-59
2022/03/19 12:14:09;;;;;;;2.78;1.10;;;20.70;40.50;;;;;;4976271;28;20134;-58
2022/03/19 12:16:41;;;;;;;3.08;1.20;;;20.70;40.50;;;;;;4976043;28;20039;-59
2022/03/19 12:19:08;;;;;;;3.70;1.15;;;20.70;40.40;;;;;;4976051;28;20051;-59
2022/03/19 12:21:36;;;;;;;4.53;1.00;;;20.70;40.30;;;;;;4974522;28;20074;-58
2022/03/19 12:24:09;;;;;;;3.17;0.90;;;20.70;40.30;;;;;;4977934;28;20051;-57
2022/03/19 12:26:38;;;;;;;2.47;1.00;;;20.70;40.30;;;;;;4976385;28;20050;-58
2022/03/19 12:29:09;;;;;;;2.85;0.90;;;20.70;40.30;;;;;;4977797;28;20051;-58
2022/03/19 12:31:42;;;;;;;2.63;0.82;;;20.70;40.30;;;;;;4977919;28;20050;-58
2022/03/19 12:34:17;;;;;;;3.80;0.80;;;20.70;40.20;;;;;;4977451;28;20581;-58
2022/03/19 12:36:44;;;;;;;4.72;0.98;;;20.70;40.20;;;;;;4983699;28;20035;-58
2022/03/19 12:39:11;;;;;;;1.83;0.52;;;20.70;40.20;;;;;;4975972;28;20102;-58
2022/03/19 12:41:38;;;;;;;2.13;0.88;;;20.70;40.20;;;;;;4979658;28;20398;-58
2022/03/19 12:44:06;;;;;;;2.13;0.93;;;20.60;40.10;;;;;;4975877;28;20060;-58
2022/03/19 12:46:35;;;;;;;2.15;1.10;;;20.70;40.10;;;;;;4974929;28;20198;-58
2022/03/19 12:49:08;;;;;;;2.05;0.75;;;20.70;39.60;;;;;;4976316;28;20097;-58
2022/03/19 12:51:36;;;;;;;3.85;0.93;;;20.70;38.60;;;;;;4975792;28;20705;-58
2022/03/19 12:54:16;;;;;;;2.83;0.82;;;20.70;37.90;;;;;;4967037;28;20507;-59
2022/03/19 12:56:42;;;;;;;2.03;0.85;;;20.70;37.90;;;;;;4971582;28;20407;-58
2022/03/19 12:59:22;;;;;;;2.85;0.80;;;20.60;38.00;;;;;;4981871;28;20297;-59
2022/03/19 13:01:48;;;;;;;1.83;1.00;;;20.70;38.00;;;;;;4987303;28;20042;-58
2022/03/19 13:04:25;;;;;;;2.22;0.70;;;20.70;38.90;;;;;;4973535;28;20392;-58